Terminal Aerodrome Forecast
Issued by NWS

Home | Current Version | Previous Version | Text Only | Print | Product List | Glossary On
Versions: 1 2 3 4 5 6 7 8 9 10 11 12 13
953
FTUS41 KAKQ 050938 AAB
TAFPHF
TAF AMD
KPHF 050938Z 0510/0606 VRB03KT 4SM -RA BR FEW007 SCT015 OVC035
      TEMPO 0510/0511 OVC007
     FM051100 VRB03KT 4SM -RA BR OVC007
     FM051300 00000KT 6SM BR OVC020
     FM051600 33005KT P6SM BKN045
     FM052000 34007KT P6SM BKN250=

USA.gov is the U.S. government's official web portal to all federal, state and local government web resources and services.